Time;durP1;ratioP1;P1;durP2;ratioP2;P2;SDS_P1;SDS_P2;PMS_P1;PMS_P2;Temp;Humidity;BMP_temperature;BMP_pressure;BME280_temperature;BME280_humidity;BME280_pressure;Samples;Min_cycle;Max_cycle;Signal;HPM_P1;HPM_P2
2021/01/18 00:01:06;;;;;;;25.63;8.47;;;;;4.70;102035.00;;;;10433549;28;20218;-76
2021/01/18 00:06:12;;;;;;;19.13;8.23;;;;;4.70;102033.00;;;;10416362;28;20597;-76
2021/01/18 00:11:17;;;;;;;18.87;8.60;;;;;4.60;102027.00;;;;10431189;28;20245;-75
2021/01/18 00:16:21;;;;;;;17.97;8.77;;;;;4.60;102015.00;;;;10462909;28;20531;-76
2021/01/18 00:21:22;;;;;;;21.37;8.80;;;;;4.50;102011.00;;;;10428468;28;20205;-76
2021/01/18 00:26:24;;;;;;;15.87;9.20;;;;;4.50;102005.00;;;;10427887;28;20535;-76
2021/01/18 00:31:25;;;;;;;17.33;8.87;;;;;4.50;101998.00;;;;10444588;28;20198;-76
2021/01/18 00:36:26;;;;;;;18.83;9.57;;;;;4.40;102004.00;;;;10460201;28;20685;-76
2021/01/18 00:41:46;;;;;;;20.53;8.83;;;;;4.40;102002.00;;;;10446518;28;20190;-76
2021/01/18 00:46:47;;;;;;;19.80;8.80;;;;;4.40;102003.00;;;;10443899;28;20214;-76
2021/01/18 00:51:49;;;;;;;23.27;9.70;;;;;4.40;101997.00;;;;10427942;28;20193;-76
2021/01/18 00:56:51;;;;;;;18.03;9.80;;;;;4.30;101990.00;;;;10460559;28;20232;-76
2021/01/18 01:02:04;;;;;;;18.20;9.23;;;;;4.20;101988.00;;;;10426994;28;20209;-76
2021/01/18 01:07:06;;;;;;;25.80;9.93;;;;;4.00;101989.00;;;;10443347;28;20248;-76
2021/01/18 01:12:08;;;;;;;22.00;10.77;;;;;3.80;101970.00;;;;10443515;28;20221;-76
2021/01/18 01:17:10;;;;;;;20.00;10.53;;;;;3.60;101974.00;;;;10458284;28;20210;-76
2021/01/18 01:22:12;;;;;;;20.97;9.60;;;;;3.40;101986.00;;;;10459754;28;20190;-76
2021/01/18 01:27:13;;;;;;;20.00;10.10;;;;;3.40;101970.00;;;;10459723;28;20179;-75
2021/01/18 01:32:14;;;;;;;20.40;10.83;;;;;3.50;101980.00;;;;10460554;28;20277;-76
2021/01/18 01:37:16;;;;;;;25.30;11.17;;;;;3.50;101976.00;;;;10441716;28;20221;-75
2021/01/18 01:42:22;;;;;;;19.20;10.03;;;;;3.40;101973.00;;;;10442439;28;20380;-75
2021/01/18 01:47:31;;;;;;;17.77;10.20;;;;;3.40;101967.00;;;;10401476;28;20195;-75
2021/01/18 01:52:36;;;;;;;23.93;11.40;;;;;3.30;101970.00;;;;10427317;28;20237;-75
2021/01/18 01:57:38;;;;;;;22.47;11.27;;;;;3.30;101968.00;;;;10459260;28;20206;-75
2021/01/18 02:02:40;;;;;;;23.67;11.17;;;;;3.30;101957.00;;;;10440877;28;20253;-75
2021/01/18 02:07:42;;;;;;;23.83;11.13;;;;;3.30;101961.00;;;;10424146;28;20588;-75
2021/01/18 02:12:44;;;;;;;24.40;11.27;;;;;3.30;101962.00;;;;10437675;28;20194;-75
2021/01/18 02:17:45;;;;;;;25.93;10.67;;;;;3.30;101976.00;;;;10423763;28;20272;-75
2021/01/18 02:23:31;;;;;;;21.30;11.03;;;;;3.30;101966.00;;;;10458326;28;20241;-75
2021/01/18 02:28:54;;;;;;;31.17;12.40;;;;;3.30;101976.00;;;;10354075;28;20661;-75
2021/01/18 02:34:10;;;;;;;21.73;11.57;;;;;3.30;101978.00;;;;10439507;28;20197;-75
2021/01/18 02:39:32;;;;;;;24.83;12.23;;;;;3.30;101963.00;;;;10440356;28;20256;-75
2021/01/18 02:44:36;;;;;;;25.97;11.77;;;;;3.20;101961.00;;;;10405989;28;20242;-75
2021/01/18 02:49:59;;;;;;;26.97;11.83;;;;;3.20;101962.00;;;;10400871;28;20191;-75
2021/01/18 02:55:03;;;;;;;23.57;11.50;;;;;3.20;101963.00;;;;10381498;28;20187;-75
2021/01/18 03:00:13;;;;;;;26.87;12.03;;;;;3.10;101966.00;;;;10414657;28;20277;-75
2021/01/18 03:05:38;;;;;;;28.47;13.30;;;;;3.10;101970.00;;;;10381298;28;20237;-76
2021/01/18 03:10:50;;;;;;;24.47;12.83;;;;;3.00;101971.00;;;;10381610;28;20282;-75
2021/01/18 03:15:55;;;;;;;21.37;11.20;;;;;3.00;101973.00;;;;10391985;28;20206;-75
2021/01/18 03:21:17;;;;;;;22.20;11.33;;;;;2.90;101980.00;;;;10454791;28;20251;-75
2021/01/18 03:26:24;;;;;;;25.83;11.80;;;;;2.80;101981.00;;;;10421301;28;20197;-75
2021/01/18 03:31:26;;;;;;;23.83;11.20;;;;;2.80;101981.00;;;;10454167;28;20194;-75
2021/01/18 03:36:30;;;;;;;32.60;11.47;;;;;2.70;101968.00;;;;10453791;28;20214;-75
2021/01/18 03:41:32;;;;;;;26.80;10.10;;;;;2.60;101960.00;;;;10437788;28;20249;-75
2021/01/18 03:46:33;;;;;;;22.77;12.33;;;;;2.60;101962.00;;;;10436895;28;20294;-75
2021/01/18 03:51:34;;;;;;;34.50;10.87;;;;;2.50;101951.00;;;;10454035;28;20214;-75
2021/01/18 03:56:40;;;;;;;25.50;12.33;;;;;2.40;101953.00;;;;10437460;28;20280;-75
2021/01/18 04:01:42;;;;;;;25.17;11.73;;;;;2.30;101955.00;;;;10453766;28;20206;-75
2021/01/18 04:06:44;;;;;;;24.83;11.63;;;;;2.30;101944.00;;;;10453941;28;20194;-75
2021/01/18 04:11:45;;;;;;;28.20;11.83;;;;;2.20;101943.00;;;;10420390;28;20201;-75
2021/01/18 04:17:04;;;;;;;23.97;12.40;;;;;2.20;101951.00;;;;10453291;28;20206;-75
2021/01/18 04:22:06;;;;;;;30.67;12.60;;;;;2.20;101947.00;;;;10437386;28;20238;-75
2021/01/18 04:27:08;;;;;;;28.03;13.13;;;;;2.20;101933.00;;;;10437015;28;20186;-75
2021/01/18 04:32:11;;;;;;;36.57;13.90;;;;;2.10;101936.00;;;;10452868;28;20649;-75
2021/01/18 04:37:13;;;;;;;33.63;14.27;;;;;2.10;101933.00;;;;10419890;28;20245;-75
2021/01/18 04:42:15;;;;;;;31.27;13.60;;;;;2.20;101930.00;;;;10419805;28;20589;-75
2021/01/18 04:47:18;;;;;;;39.33;13.40;;;;;2.10;101942.00;;;;10436668;28;20198;-75
2021/01/18 04:52:25;;;;;;;24.63;12.70;;;;;2.20;101928.00;;;;10455056;28;20186;-75
2021/01/18 04:57:35;;;;;;;30.03;13.07;;;;;2.20;101921.00;;;;10444048;28;20256;-75
2021/01/18 05:02:46;;;;;;;27.20;11.93;;;;;2.20;101919.00;;;;10427010;28;20252;-75
2021/01/18 05:08:04;;;;;;;30.80;14.07;;;;;2.10;101922.00;;;;10460474;28;20197;-75
2021/01/18 05:13:24;;;;;;;34.50;13.57;;;;;2.20;101922.00;;;;10428748;28;20202;-75
2021/01/18 05:18:32;;;;;;;34.90;14.70;;;;;2.20;101937.00;;;;10442583;28;20206;-75
2021/01/18 05:23:41;;;;;;;36.80;13.03;;;;;2.20;101927.00;;;;10443119;28;20245;-75
2021/01/18 05:28:44;;;;;;;28.17;13.10;;;;;2.20;101921.00;;;;10425936;28;20191;-75
2021/01/18 05:33:46;;;;;;;28.70;13.27;;;;;2.20;101917.00;;;;10426482;28;20301;-75
2021/01/18 05:38:47;;;;;;;30.43;13.83;;;;;2.30;101926.00;;;;10458175;28;20680;-75
2021/01/18 05:43:49;;;;;;;34.13;11.87;;;;;2.30;101919.00;;;;10459028;28;20245;-75
2021/01/18 05:48:50;;;;;;;27.63;12.73;;;;;2.30;101918.00;;;;10441716;28;20193;-75
2021/01/18 05:53:52;;;;;;;35.20;13.07;;;;;2.30;101909.00;;;;10458517;28;20198;-75
2021/01/18 05:58:54;;;;;;;22.87;12.10;;;;;2.30;101919.00;;;;10441020;28;20267;-75
2021/01/18 06:04:06;;;;;;;22.10;11.33;;;;;2.30;101912.00;;;;10424594;28;20653;-75
2021/01/18 06:09:46;;;;;;;31.63;11.70;;;;;2.30;101907.00;;;;10443282;28;20185;-75
2021/01/18 06:15:03;;;;;;;23.80;10.87;;;;;2.40;101921.00;;;;10424198;28;20289;-75
2021/01/18 06:20:06;;;;;;;31.27;12.50;;;;;2.40;101919.00;;;;10456756;28;20197;-75
2021/01/18 06:25:13;;;;;;;26.37;11.23;;;;;2.40;101921.00;;;;10398288;28;20744;-75
2021/01/18 06:30:27;;;;;;;24.43;11.23;;;;;2.50;101912.00;;;;10398756;28;20266;-75
2021/01/18 06:35:31;;;;;;;30.13;13.07;;;;;2.50;101902.00;;;;10416384;28;20245;-75
2021/01/18 06:40:39;;;;;;;33.53;13.67;;;;;2.60;101917.00;;;;10398886;28;20207;-75
2021/01/18 06:45:40;;;;;;;24.80;10.83;;;;;2.60;101910.00;;;;10398260;28;20314;-75
2021/01/18 06:50:42;;;;;;;29.13;10.77;;;;;2.60;101905.00;;;;10398463;28;20210;-75
2021/01/18 06:56:05;;;;;;;23.53;11.97;;;;;2.60;101914.00;;;;10406499;28;20195;-76
2021/01/18 07:01:11;;;;;;;25.50;12.00;;;;;2.70;101917.00;;;;10415740;28;20199;-76
2021/01/18 07:06:31;;;;;;;22.23;11.47;;;;;2.70;101917.00;;;;10416213;28;20195;-75
2021/01/18 07:11:32;;;;;;;24.10;10.67;;;;;2.70;101906.00;;;;10348660;28;20195;-75
2021/01/18 07:16:34;;;;;;;21.37;10.17;;;;;2.70;101902.00;;;;10447392;28;20716;-75
2021/01/18 07:21:42;;;;;;;21.20;10.97;;;;;2.70;101893.00;;;;10456654;28;20214;-75
2021/01/18 07:27:04;;;;;;;22.87;10.50;;;;;2.70;101892.00;;;;10455363;28;20277;-75
2021/01/18 07:32:08;;;;;;;23.77;11.27;;;;;2.70;101892.00;;;;10455273;28;20260;-76
2021/01/18 07:37:11;;;;;;;24.13;11.33;;;;;2.70;101894.00;;;;10404669;28;20210;-76
2021/01/18 07:42:27;;;;;;;21.70;10.33;;;;;2.70;101895.00;;;;10438425;28;20526;-75
2021/01/18 07:47:31;;;;;;;24.40;10.23;;;;;2.70;101892.00;;;;10402446;28;20293;-76
2021/01/18 07:52:34;;;;;;;25.97;11.07;;;;;2.70;101896.00;;;;10396806;28;20290;-76
2021/01/18 07:57:38;;;;;;;26.27;9.97;;;;;2.80;101896.00;;;;10413853;28;20207;-76
2021/01/18 08:02:39;;;;;;;19.23;9.20;;;;;2.80;101898.00;;;;10396308;28;20230;-76
2021/01/18 08:08:13;;;;;;;26.97;10.23;;;;;2.90;101891.00;;;;10430671;28;20941;-76
2021/01/18 08:13:31;;;;;;;28.67;9.93;;;;;3.10;101889.00;;;;10420278;28;20229;-76
2021/01/18 08:18:32;;;;;;;19.87;9.57;;;;;3.20;101896.00;;;;10454191;28;20214;-76
2021/01/18 08:23:45;;;;;;;24.47;10.07;;;;;3.30;101901.00;;;;10404359;28;20222;-76
2021/01/18 08:28:49;;;;;;;21.93;9.50;;;;;3.40;101916.00;;;;10458011;28;20194;-76
2021/01/18 08:34:09;;;;;;;25.87;8.63;;;;;3.60;101905.00;;;;10447130;28;20207;-76
2021/01/18 08:39:11;;;;;;;19.40;8.60;;;;;3.70;101908.00;;;;10402983;28;20238;-76
2021/01/18 08:44:29;;;;;;;20.70;7.90;;;;;3.90;101898.00;;;;10433472;28;20222;-77
2021/01/18 08:49:35;;;;;;;23.40;8.17;;;;;4.30;101901.00;;;;10426348;28;20198;-76
2021/01/18 08:54:38;;;;;;;28.87;10.03;;;;;4.60;101900.00;;;;10427928;28;20202;-76
2021/01/18 08:59:39;;;;;;;19.73;8.03;;;;;4.90;101913.00;;;;10444124;28;20214;-77
2021/01/18 09:04:40;;;;;;;22.20;8.63;;;;;5.10;101926.00;;;;10410582;28;20216;-77
2021/01/18 09:09:43;;;;;;;20.03;8.07;;;;;5.20;101920.00;;;;10414991;28;20250;-76
2021/01/18 09:14:44;;;;;;;16.23;6.10;;;;;5.20;101915.00;;;;10419887;28;20260;-77
2021/01/18 09:19:52;;;;;;;17.07;6.80;;;;;5.30;101922.00;;;;10425826;28;20210;-77
2021/01/18 09:24:54;;;;;;;20.47;8.03;;;;;5.50;101915.00;;;;10426475;28;20252;-76
2021/01/18 09:30:03;;;;;;;18.93;7.00;;;;;5.70;101916.00;;;;10442329;28;20263;-77
2021/01/18 09:35:08;;;;;;;16.27;7.03;;;;;5.90;101908.00;;;;10461103;28;20282;-77
2021/01/18 09:40:20;;;;;;;17.23;7.33;;;;;5.90;101905.00;;;;10424450;28;20596;-77
2021/01/18 09:45:23;;;;;;;19.47;7.40;;;;;6.10;101907.00;;;;10441968;28;20222;-77
2021/01/18 09:50:29;;;;;;;19.57;5.83;;;;;6.30;101904.00;;;;10457683;28;20194;-77
2021/01/18 09:55:32;;;;;;;14.67;5.17;;;;;6.40;101909.00;;;;10458110;28;20661;-77
2021/01/18 10:00:37;;;;;;;15.50;5.20;;;;;6.40;101913.00;;;;10392959;28;20222;-77
2021/01/18 10:05:40;;;;;;;10.37;5.50;;;;;6.30;101918.00;;;;10384919;28;20199;-76
2021/01/18 10:10:46;;;;;;;14.80;5.23;;;;;6.30;101910.00;;;;10424825;28;20189;-77
2021/01/18 10:15:48;;;;;;;19.93;6.50;;;;;6.50;101900.00;;;;10397083;28;20207;-77
2021/01/18 10:20:53;;;;;;;18.93;6.10;;;;;6.70;101899.00;;;;10416497;28;20211;-77
2021/01/18 10:25:54;;;;;;;13.77;6.27;;;;;7.00;101893.00;;;;10399508;28;20206;-77
2021/01/18 10:30:57;;;;;;;10.57;5.60;;;;;7.20;101894.00;;;;10439371;28;20688;-77
2021/01/18 10:35:58;;;;;;;15.20;6.20;;;;;7.20;101882.00;;;;10410807;28;20194;-77
2021/01/18 10:41:08;;;;;;;17.60;6.00;;;;;7.30;101890.00;;;;10439639;28;20249;-77
2021/01/18 10:46:24;;;;;;;15.47;6.17;;;;;7.50;101873.00;;;;10410571;28;20284;-77
2021/01/18 10:51:27;;;;;;;21.60;6.90;;;;;7.70;101861.00;;;;10447297;28;20277;-77
2021/01/18 10:56:33;;;;;;;16.30;6.80;;;;;7.80;101861.00;;;;10456161;28;20202;-77
2021/01/18 11:01:34;;;;;;;12.67;5.37;;;;;7.90;101850.00;;;;10422183;28;20265;-77
2021/01/18 11:06:37;;;;;;;17.77;7.00;;;;;8.30;101844.00;;;;10405420;28;20213;-77
2021/01/18 11:11:38;;;;;;;13.70;5.33;;;;;8.40;101845.00;;;;10455190;28;20213;-76
2021/01/18 11:16:39;;;;;;;16.90;6.50;;;;;8.30;101846.00;;;;10441215;28;20201;-75
2021/01/18 11:21:43;;;;;;;17.53;6.23;;;;;8.20;101838.00;;;;10440422;28;20244;-75
2021/01/18 11:26:50;;;;;;;11.50;5.00;;;;;8.30;101820.00;;;;10437702;28;20197;-76
2021/01/18 11:31:52;;;;;;;15.70;5.73;;;;;8.30;101798.00;;;;10437871;28;20202;-75
2021/01/18 11:36:53;;;;;;;20.73;7.73;;;;;8.60;101806.00;;;;10420964;28;20244;-76
2021/01/18 11:41:55;;;;;;;24.23;8.57;;;;;9.00;101801.00;;;;10429947;28;20198;-75
2021/01/18 11:46:57;;;;;;;16.77;5.93;;;;;9.20;101799.00;;;;10453231;28;20237;-76
2021/01/18 11:51:59;;;;;;;23.60;5.90;;;;;9.00;101790.00;;;;10429674;28;20194;-75
2021/01/18 11:57:06;;;;;;;12.93;4.97;;;;;8.80;101808.00;;;;10452497;28;20248;-75
2021/01/18 12:02:07;;;;;;;16.33;5.20;;;;;8.70;101797.00;;;;10436062;28;20248;-75
2021/01/18 12:07:10;;;;;;;17.40;5.30;;;;;8.60;101785.00;;;;10420627;28;20186;-75
2021/01/18 12:12:12;;;;;;;18.37;5.37;;;;;8.40;101782.00;;;;10437057;28;20194;-75
2021/01/18 12:17:14;;;;;;;14.87;5.40;;;;;8.20;101777.00;;;;10435293;28;20210;-75
2021/01/18 12:22:18;;;;;;;12.20;5.97;;;;;8.20;101772.00;;;;10408981;28;20194;-76
2021/01/18 12:27:19;;;;;;;13.27;5.60;;;;;8.20;101761.00;;;;10435750;28;20190;-75
2021/01/18 12:32:21;;;;;;;14.90;5.43;;;;;8.20;101763.00;;;;10403833;28;20244;-75
2021/01/18 12:37:22;;;;;;;15.20;5.20;;;;;8.20;101754.00;;;;10435382;28;20214;-75
2021/01/18 12:42:24;;;;;;;14.40;5.80;;;;;8.20;101739.00;;;;10435936;28;20671;-75
2021/01/18 12:47:25;;;;;;;11.70;5.27;;;;;8.30;101740.00;;;;10418970;28;20253;-75
2021/01/18 12:52:26;;;;;;;15.67;5.90;;;;;8.30;101722.00;;;;10436013;28;20206;-75
2021/01/18 12:57:28;;;;;;;16.27;5.30;;;;;8.40;101733.00;;;;10419447;28;20646;-75
2021/01/18 13:02:30;;;;;;;12.60;4.53;;;;;8.40;101733.00;;;;10453794;28;20264;-75
2021/01/18 13:07:31;;;;;;;15.77;6.23;;;;;8.40;101721.00;;;;10452055;28;20617;-75
2021/01/18 13:12:32;;;;;;;11.83;5.60;;;;;8.30;101726.00;;;;10431930;28;20221;-76
2021/01/18 13:17:34;;;;;;;17.30;6.20;;;;;8.50;101716.00;;;;10442958;28;20210;-75
2021/01/18 13:22:37;;;;;;;16.40;5.53;;;;;8.50;101707.00;;;;10460506;28;20213;-77
2021/01/18 13:27:38;;;;;;;15.07;6.40;;;;;8.40;101708.00;;;;10442786;28;20202;-76
2021/01/18 13:32:40;;;;;;;13.37;6.97;;;;;8.30;101690.00;;;;10448752;28;20198;-76
2021/01/18 13:37:41;;;;;;;17.60;7.37;;;;;8.20;101687.00;;;;10441893;28;20293;-76
2021/01/18 13:42:43;;;;;;;16.00;7.50;;;;;8.00;101690.00;;;;10442592;28;20237;-76
2021/01/18 13:47:45;;;;;;;17.37;6.80;;;;;7.90;101682.00;;;;10427781;28;20638;-76
2021/01/18 13:52:46;;;;;;;14.37;7.40;;;;;7.70;101680.00;;;;10458202;28;20307;-76
2021/01/18 13:57:47;;;;;;;17.27;6.53;;;;;7.60;101683.00;;;;10441149;28;20296;-75
2021/01/18 14:02:53;;;;;;;23.13;8.17;;;;;7.60;101677.00;;;;10452945;28;20301;-76
2021/01/18 14:07:55;;;;;;;16.07;7.07;;;;;7.60;101670.00;;;;10457939;28;20190;-76
2021/01/18 14:12:56;;;;;;;10.07;6.53;;;;;7.60;101676.00;;;;10426864;28;20226;-76
2021/01/18 14:17:57;;;;;;;16.23;8.30;;;;;7.50;101670.00;;;;10410651;28;20301;-76
2021/01/18 14:22:59;;;;;;;14.77;8.57;;;;;7.40;101669.00;;;;10457068;28;20194;-76
2021/01/18 14:28:03;;;;;;;14.30;8.07;;;;;7.40;101671.00;;;;10439837;28;20197;-76
2021/01/18 14:33:04;;;;;;;18.10;8.07;;;;;7.40;101675.00;;;;10439768;28;20280;-76
2021/01/18 14:38:06;;;;;;;13.77;6.83;;;;;7.30;101669.00;;;;10439797;28;20206;-76
2021/01/18 14:43:07;;;;;;;15.37;8.17;;;;;7.20;101670.00;;;;10429669;28;20696;-75
2021/01/18 14:48:08;;;;;;;15.10;8.90;;;;;7.00;101677.00;;;;10438968;28;20198;-76
2021/01/18 14:53:10;;;;;;;16.93;8.53;;;;;7.00;101677.00;;;;10438961;28;20600;-76
2021/01/18 14:58:11;;;;;;;12.83;8.70;;;;;6.80;101664.00;;;;10456050;28;20242;-76
2021/01/18 15:03:13;;;;;;;14.53;8.97;;;;;6.70;101662.00;;;;10435458;28;20194;-76
2021/01/18 15:08:15;;;;;;;18.87;9.20;;;;;6.60;101667.00;;;;10408683;28;20250;-76
2021/01/18 15:13:16;;;;;;;15.23;8.80;;;;;6.50;101661.00;;;;10449694;28;20256;-76
2021/01/18 15:18:18;;;;;;;17.00;9.83;;;;;6.40;101672.00;;;;10421355;28;20272;-75
2021/01/18 15:23:19;;;;;;;14.50;9.67;;;;;6.30;101668.00;;;;10404542;28;20273;-75
2021/01/18 15:28:21;;;;;;;18.90;11.00;;;;;6.20;101669.00;;;;10420428;28;20632;-75
2021/01/18 15:33:22;;;;;;;19.43;10.13;;;;;6.10;101673.00;;;;10440821;28;20598;-75
2021/01/18 15:38:24;;;;;;;16.47;9.47;;;;;6.00;101673.00;;;;10389066;28;20675;-75
2021/01/18 15:43:25;;;;;;;23.10;13.73;;;;;5.90;101663.00;;;;10425285;28;20254;-75
2021/01/18 15:48:28;;;;;;;31.67;17.07;;;;;5.80;101658.00;;;;10454460;28;20202;-75
2021/01/18 15:53:29;;;;;;;26.00;15.37;;;;;5.70;101660.00;;;;10423103;28;20198;-75
2021/01/18 15:58:48;;;;;;;26.97;16.87;;;;;5.60;101654.00;;;;10420746;28;20221;-75
2021/01/18 16:03:50;;;;;;;28.10;16.60;;;;;5.50;101647.00;;;;10397849;28;20661;-75
2021/01/18 16:08:52;;;;;;;37.87;19.13;;;;;5.50;101656.00;;;;10453660;28;20205;-75
2021/01/18 16:13:53;;;;;;;33.10;19.30;;;;;5.50;101651.00;;;;10411376;28;20637;-75
2021/01/18 16:18:56;;;;;;;35.70;19.43;;;;;5.50;101661.00;;;;10410068;28;20214;-75
2021/01/18 16:23:57;;;;;;;37.30;20.53;;;;;5.40;101657.00;;;;10413948;28;20486;-75
2021/01/18 16:28:59;;;;;;;39.37;20.87;;;;;5.30;101655.00;;;;10415021;28;20209;-75
2021/01/18 16:34:03;;;;;;;32.03;19.17;;;;;5.30;101650.00;;;;10421129;28;20278;-75
2021/01/18 16:39:07;;;;;;;30.37;17.07;;;;;5.30;101649.00;;;;10429238;28;20847;-75
2021/01/18 16:44:08;;;;;;;28.40;16.67;;;;;5.30;101655.00;;;;10432065;28;20222;-75
2021/01/18 16:49:10;;;;;;;29.53;17.40;;;;;5.30;101650.00;;;;10440372;28;20190;-75
2021/01/18 16:54:12;;;;;;;23.70;15.87;;;;;5.30;101653.00;;;;10460096;28;20668;-75
2021/01/18 16:59:13;;;;;;;25.57;16.57;;;;;5.40;101643.00;;;;10433386;28;20297;-75
2021/01/18 17:04:15;;;;;;;25.73;16.47;;;;;5.40;101631.00;;;;10427009;28;20236;-75
2021/01/18 17:09:19;;;;;;;35.83;17.30;;;;;5.30;101619.00;;;;10459647;28;20837;-75
2021/01/18 17:14:21;;;;;;;30.47;17.67;;;;;5.20;101627.00;;;;10431220;28;20201;-75
2021/01/18 17:19:24;;;;;;;26.87;16.30;;;;;5.20;101625.00;;;;10442545;28;20613;-75
2021/01/18 17:24:30;;;;;;;25.43;16.17;;;;;5.10;101620.00;;;;10459570;28;20198;-75
2021/01/18 17:29:32;;;;;;;24.10;15.67;;;;;5.10;101625.00;;;;10418687;28;20593;-75
2021/01/18 17:34:33;;;;;;;33.90;16.37;;;;;5.10;101629.00;;;;10442239;28;20248;-75
2021/01/18 17:39:36;;;;;;;30.10;16.40;;;;;5.00;101636.00;;;;10438581;28;20203;-75
2021/01/18 17:44:38;;;;;;;21.40;13.73;;;;;4.90;101643.00;;;;10431422;28;20586;-75
2021/01/18 17:49:39;;;;;;;21.70;13.63;;;;;5.00;101649.00;;;;10401616;28;20280;-75
2021/01/18 17:54:40;;;;;;;24.47;13.17;;;;;5.10;101647.00;;;;10402907;28;20190;-76
2021/01/18 17:59:42;;;;;;;17.93;12.53;;;;;5.20;101627.00;;;;10374934;28;20215;-76
2021/01/18 18:04:43;;;;;;;16.83;10.93;;;;;5.40;101634.00;;;;10399618;28;20198;-76
2021/01/18 18:09:45;;;;;;;17.80;10.73;;;;;5.40;101633.00;;;;10400032;28;20218;-76
2021/01/18 18:14:46;;;;;;;16.50;12.17;;;;;5.50;101633.00;;;;10417073;28;20198;-76
2021/01/18 18:19:47;;;;;;;20.70;11.43;;;;;5.50;101636.00;;;;10399969;28;20239;-76
2021/01/18 18:24:49;;;;;;;18.30;11.20;;;;;5.50;101621.00;;;;10416143;28;20186;-76
2021/01/18 18:29:51;;;;;;;16.50;12.27;;;;;5.60;101620.00;;;;10398895;28;20197;-76
2021/01/18 18:34:52;;;;;;;17.77;12.37;;;;;5.60;101622.00;;;;10415856;28;20245;-76
2021/01/18 18:39:54;;;;;;;23.63;13.17;;;;;5.60;101621.00;;;;10398568;28;20214;-76
2021/01/18 18:44:55;;;;;;;25.30;13.77;;;;;5.60;101617.00;;;;10397969;28;20226;-76
2021/01/18 18:49:58;;;;;;;13.60;9.23;;;;;5.60;101624.00;;;;10440222;28;20198;-76
2021/01/18 18:54:59;;;;;;;17.43;11.27;;;;;5.60;101618.00;;;;10422650;28;20229;-76
2021/01/18 19:00:05;;;;;;;13.90;10.60;;;;;5.60;101607.00;;;;10439275;28;20213;-76
2021/01/18 19:05:10;;;;;;;15.33;9.87;;;;;5.60;101594.00;;;;10405958;28;20198;-76
2021/01/18 19:10:11;;;;;;;15.73;9.97;;;;;5.60;101593.00;;;;10455254;28;20538;-76
2021/01/18 19:15:13;;;;;;;15.73;9.80;;;;;5.50;101593.00;;;;10455347;28;20225;-76
2021/01/18 19:20:15;;;;;;;14.47;8.97;;;;;5.50;101579.00;;;;10438661;28;20211;-76
2021/01/18 19:25:17;;;;;;;12.70;7.90;;;;;5.50;101566.00;;;;10421275;28;20198;-76
2021/01/18 19:30:19;;;;;;;14.27;10.27;;;;;5.60;101553.00;;;;10438721;28;20208;-76
2021/01/18 19:35:20;;;;;;;12.83;9.40;;;;;5.60;101560.00;;;;10437792;28;20201;-76
2021/01/18 19:40:35;;;;;;;20.50;13.33;;;;;5.60;101557.00;;;;10436516;28;20205;-75
2021/01/18 19:45:39;;;;;;;20.60;10.07;;;;;5.50;101547.00;;;;10420574;28;20593;-75
2021/01/18 19:50:41;;;;;;;21.87;11.83;;;;;5.60;101551.00;;;;10437764;28;20275;-76
2021/01/18 19:55:42;;;;;;;19.47;11.07;;;;;5.60;101542.00;;;;10437893;28;20256;-76
2021/01/18 20:00:45;;;;;;;16.57;9.90;;;;;5.60;101536.00;;;;10436969;28;20217;-76
2021/01/18 20:05:49;;;;;;;17.67;9.03;;;;;5.50;101537.00;;;;10436655;28;20241;-76
2021/01/18 20:10:51;;;;;;;16.37;9.53;;;;;5.50;101541.00;;;;10454921;28;20236;-76
2021/01/18 20:15:52;;;;;;;16.90;7.67;;;;;5.60;101518.00;;;;10425959;28;20202;-76
2021/01/18 20:20:54;;;;;;;16.93;6.77;;;;;5.60;101517.00;;;;10411968;28;20206;-76
2021/01/18 20:25:55;;;;;;;13.20;5.80;;;;;5.60;101512.00;;;;10403850;28;20217;-76
2021/01/18 20:30:57;;;;;;;11.67;5.30;;;;;5.60;101510.00;;;;10404239;28;20191;-76
2021/01/18 20:36:02;;;;;;;15.30;6.70;;;;;5.70;101501.00;;;;10420115;28;20202;-76
2021/01/18 20:41:03;;;;;;;15.73;5.70;;;;;5.70;101500.00;;;;10403052;28;20206;-76
2021/01/18 20:46:05;;;;;;;16.63;5.50;;;;;5.60;101496.00;;;;10386772;28;20215;-76
2021/01/18 20:51:06;;;;;;;13.73;5.17;;;;;5.50;101495.00;;;;10421266;28;20198;-76
2021/01/18 20:56:08;;;;;;;21.47;5.73;;;;;5.40;101485.00;;;;10402574;28;20623;-76
2021/01/18 21:01:10;;;;;;;17.67;4.43;;;;;5.40;101477.00;;;;10402342;28;20282;-76
2021/01/18 21:06:22;;;;;;;11.03;5.43;;;;;5.40;101480.00;;;;10404844;28;20241;-76
2021/01/18 21:11:24;;;;;;;10.97;4.70;;;;;5.40;101487.00;;;;10460680;28;20178;-76
2021/01/18 21:16:27;;;;;;;13.83;4.47;;;;;5.50;101474.00;;;;10410561;28;20202;-76
2021/01/18 21:21:29;;;;;;;11.00;4.20;;;;;5.50;101461.00;;;;10418845;28;20222;-76
2021/01/18 21:26:39;;;;;;;14.57;3.93;;;;;5.50;101454.00;;;;10419098;28;20187;-76
2021/01/18 21:31:45;;;;;;;11.30;3.53;;;;;5.60;101448.00;;;;10418908;28;20187;-76
2021/01/18 21:36:57;;;;;;;9.77;3.50;;;;;5.60;101439.00;;;;10400617;28;20187;-76
2021/01/18 21:41:58;;;;;;;9.53;3.30;;;;;5.60;101447.00;;;;10384776;28;20277;-76
2021/01/18 21:46:59;;;;;;;10.50;3.80;;;;;5.60;101441.00;;;;10385906;28;20244;-76
2021/01/18 21:52:02;;;;;;;15.53;5.10;;;;;5.60;101426.00;;;;10401370;28;20229;-76
2021/01/18 21:57:04;;;;;;;17.83;5.57;;;;;5.60;101414.00;;;;10418733;28;20183;-76
2021/01/18 22:02:05;;;;;;;15.43;4.87;;;;;5.50;101409.00;;;;10417898;28;20218;-76
2021/01/18 22:07:07;;;;;;;16.77;5.17;;;;;5.50;101392.00;;;;10401324;28;20218;-76
2021/01/18 22:12:12;;;;;;;9.90;4.40;;;;;5.50;101396.00;;;;10400711;28;20187;-76
2021/01/18 22:17:13;;;;;;;8.77;3.47;;;;;5.50;101390.00;;;;10416246;28;20198;-76
2021/01/18 22:22:15;;;;;;;11.33;4.20;;;;;5.60;101393.00;;;;10417928;28;20568;-76
2021/01/18 22:27:17;;;;;;;9.70;4.17;;;;;5.60;101385.00;;;;10416055;28;20195;-76
2021/01/18 22:32:18;;;;;;;16.73;4.40;;;;;5.50;101392.00;;;;10398575;28;20203;-76
2021/01/18 22:37:20;;;;;;;18.90;4.40;;;;;5.50;101393.00;;;;10382660;28;20202;-75
2021/01/18 22:42:21;;;;;;;9.77;3.80;;;;;5.60;101380.00;;;;10398647;28;20193;-76
2021/01/18 22:47:22;;;;;;;13.87;4.30;;;;;5.60;101376.00;;;;10398301;28;20202;-75
2021/01/18 22:52:25;;;;;;;11.80;4.03;;;;;5.50;101357.00;;;;10399302;28;20558;-76
2021/01/18 22:57:32;;;;;;;12.17;3.63;;;;;5.50;101339.00;;;;10397745;28;20733;-75
2021/01/18 23:02:37;;;;;;;13.90;3.87;;;;;5.50;101334.00;;;;10381657;28;20194;-75
2021/01/18 23:07:42;;;;;;;14.17;3.73;;;;;5.50;101330.00;;;;10381490;28;20201;-75
2021/01/18 23:12:44;;;;;;;16.33;4.43;;;;;5.40;101323.00;;;;10397851;28;20206;-75
2021/01/18 23:17:45;;;;;;;14.30;3.77;;;;;5.40;101322.00;;;;10413578;28;20210;-75
2021/01/18 23:22:46;;;;;;;12.87;3.53;;;;;5.40;101309.00;;;;10414481;28;20186;-75
2021/01/18 23:27:48;;;;;;;11.53;3.40;;;;;5.30;101305.00;;;;10397979;28;20191;-75
2021/01/18 23:32:51;;;;;;;9.27;3.00;;;;;5.20;101288.00;;;;10380999;28;20680;-76
2021/01/18 23:37:52;;;;;;;9.50;3.47;;;;;5.10;101283.00;;;;10397868;28;20215;-75
2021/01/18 23:42:53;;;;;;;10.50;2.73;;;;;5.00;101272.00;;;;10383452;28;20226;-75
2021/01/18 23:47:55;;;;;;;11.47;3.17;;;;;4.90;101261.00;;;;10437786;28;20268;-75
2021/01/18 23:52:56;;;;;;;6.27;2.73;;;;;4.80;101261.00;;;;10421491;28;20190;-75
2021/01/18 23:57:57;;;;;;;5.83;2.47;;;;;4.70;101250.00;;;;10436843;28;20776;-75
